createdAt,value
2017-12-24T00:00:39.128Z,10.02
2017-12-24T00:01:39.835Z,9.97
2017-12-24T00:02:40.544Z,10.01
2017-12-24T00:03:41.252Z,10.04
2017-12-24T00:04:41.958Z,9.98
2017-12-24T00:05:42.682Z,10.04
2017-12-24T00:06:43.389Z,10.04
2017-12-24T00:07:44.108Z,10.01
2017-12-24T00:08:44.821Z,9.98
2017-12-24T00:09:45.529Z,9.98
2017-12-24T00:10:46.232Z,9.95
2017-12-24T00:11:46.940Z,9.98
2017-12-24T00:12:47.646Z,10.04
2017-12-24T00:13:48.356Z,10.02
2017-12-24T00:14:49.063Z,9.98
2017-12-24T00:15:49.770Z,9.98
2017-12-24T00:16:50.478Z,10.05
2017-12-24T00:17:51.201Z,9.97
2017-12-24T00:18:51.910Z,10.05
2017-12-24T00:19:52.618Z,9.99
2017-12-24T00:20:53.368Z,9.99
2017-12-24T00:21:54.032Z,9.99
2017-12-24T00:22:54.739Z,9.95
2017-12-24T00:23:55.446Z,9.99
2017-12-24T00:24:56.154Z,9.98
2017-12-24T00:25:56.863Z,10.01
2017-12-24T00:26:57.573Z,10.01
2017-12-24T00:27:58.281Z,10.04
2017-12-24T00:28:58.989Z,9.92
2017-12-24T00:29:59.707Z,10.01
2017-12-24T00:31:00.405Z,9.98
2017-12-24T00:32:01.110Z,9.98
2017-12-24T00:33:01.816Z,9.98
2017-12-24T00:34:02.524Z,10.01
2017-12-24T00:35:03.245Z,9.98
2017-12-24T00:36:03.954Z,9.95
2017-12-24T00:37:04.663Z,10.01
2017-12-24T00:38:05.388Z,9.98
2017-12-24T00:39:06.094Z,10.01
2017-12-24T00:40:06.801Z,9.99
2017-12-24T00:41:07.508Z,9.95
2017-12-24T00:42:08.216Z,9.89
2017-12-24T00:43:08.923Z,9.95
2017-12-24T00:44:09.630Z,9.84
2017-12-24T00:45:10.352Z,9.91
2017-12-24T00:46:11.062Z,10.04
2017-12-24T00:47:11.771Z,9.89
2017-12-24T00:48:12.477Z,9.99
2017-12-24T00:49:13.185Z,9.89
2017-12-24T00:50:13.891Z,9.98
2017-12-24T00:51:14.598Z,9.84
2017-12-24T00:52:15.306Z,9.82
2017-12-24T00:53:16.013Z,9.94
2017-12-24T00:54:16.733Z,9.82
2017-12-24T00:55:17.445Z,9.80
2017-12-24T00:56:18.148Z,9.92
2017-12-24T00:57:18.855Z,9.84
2017-12-24T00:58:19.560Z,9.83
2017-12-24T00:59:20.266Z,9.83
2017-12-24T01:00:20.973Z,9.83
2017-12-24T01:01:21.680Z,9.83
2017-12-24T01:02:22.389Z,9.86
2017-12-24T01:03:23.112Z,9.80
2017-12-24T01:04:23.819Z,9.83
2017-12-24T01:05:24.544Z,9.87
2017-12-24T01:06:25.249Z,9.94
2017-12-24T01:07:25.971Z,9.92
2017-12-24T01:08:26.681Z,9.87
2017-12-24T01:09:27.389Z,9.82
2017-12-24T01:10:28.098Z,9.82
2017-12-24T01:11:28.807Z,9.89
2017-12-24T01:12:29.515Z,9.87
2017-12-24T01:13:30.224Z,9.94
2017-12-24T01:14:30.941Z,9.97
2017-12-24T01:15:31.650Z,9.91
2017-12-24T01:16:32.359Z,9.95
2017-12-24T01:17:33.067Z,9.89
2017-12-24T01:18:33.775Z,9.80
2017-12-24T01:19:34.483Z,9.80
2017-12-24T01:20:35.191Z,9.92
2017-12-24T01:21:35.897Z,9.99
2017-12-24T01:22:36.604Z,9.95
2017-12-24T01:23:37.313Z,10.01
2017-12-24T01:24:38.021Z,9.95
2017-12-24T01:25:38.731Z,9.97
2017-12-24T01:26:39.440Z,9.91
2017-12-24T01:27:40.148Z,9.95
2017-12-24T01:28:40.857Z,9.98
2017-12-24T01:29:41.577Z,10.04
2017-12-24T01:30:42.286Z,9.99
2017-12-24T01:31:42.995Z,10.01
2017-12-24T01:32:43.708Z,10.02
2017-12-24T01:33:44.415Z,10.01
2017-12-24T01:34:45.123Z,9.97
2017-12-24T01:35:45.832Z,10.05
2017-12-24T01:36:46.554Z,9.99
2017-12-24T01:37:47.270Z,10.07
2017-12-24T01:38:47.969Z,9.97
2017-12-24T01:39:48.676Z,10.02
2017-12-24T01:40:49.385Z,10.01
2017-12-24T01:41:50.091Z,9.99
2017-12-24T01:42:50.800Z,9.98
2017-12-24T01:43:51.509Z,10.01
2017-12-24T01:44:52.223Z,9.99
2017-12-24T01:45:52.926Z,9.91
2017-12-24T01:46:53.646Z,9.98
2017-12-24T01:47:54.354Z,10.02
2017-12-24T01:48:55.069Z,10.02
2017-12-24T01:49:55.790Z,9.97
2017-12-24T01:50:56.501Z,10.02
2017-12-24T01:51:57.208Z,9.99
2017-12-24T01:52:57.917Z,10.09
2017-12-24T01:53:58.644Z,10.09
2017-12-24T01:54:59.364Z,9.95
2017-12-24T01:56:00.073Z,10.02
2017-12-24T01:57:00.781Z,9.99
2017-12-24T01:58:01.504Z,10.01
2017-12-24T01:59:02.214Z,10.02
2017-12-24T02:00:02.923Z,9.98
2017-12-24T02:01:03.635Z,10.02
2017-12-24T02:02:04.357Z,10.02
2017-12-24T02:03:05.066Z,10.02
2017-12-24T02:04:05.775Z,9.99
2017-12-24T02:05:06.485Z,10.02
2017-12-24T02:06:07.193Z,10.04
2017-12-24T02:07:07.902Z,10.05
2017-12-24T02:08:08.609Z,9.99
2017-12-24T02:09:09.315Z,9.99
2017-12-24T02:10:10.025Z,10.01
2017-12-24T02:11:10.747Z,10.01
2017-12-24T02:12:11.456Z,10.01
2017-12-24T02:14:27.749Z,10.04
2017-12-24T02:15:28.450Z,10.02
2017-12-24T02:16:29.160Z,10.04
2017-12-24T02:17:29.868Z,9.98
2017-12-24T02:18:30.577Z,9.99
2017-12-24T02:19:31.288Z,10.07
2017-12-24T02:20:31.997Z,10.04
2017-12-24T02:21:32.706Z,10.01
2017-12-24T02:22:33.414Z,10.07
2017-12-24T02:23:34.125Z,10.05
2017-12-24T02:24:34.830Z,9.99
2017-12-24T02:25:35.539Z,10.02
2017-12-24T02:26:36.259Z,10.05
2017-12-24T02:27:36.984Z,10.01
2017-12-24T02:28:37.691Z,9.95
2017-12-24T02:29:38.399Z,9.98
2017-12-24T02:30:39.122Z,10.01
2017-12-24T02:31:39.830Z,9.92
2017-12-24T02:32:40.541Z,10.01
2017-12-24T02:33:41.247Z,9.95
2017-12-24T02:34:41.955Z,9.98
2017-12-24T02:35:42.676Z,9.94
2017-12-24T02:36:43.400Z,10.04
2017-12-24T02:37:44.116Z,10.01
2017-12-24T02:38:44.824Z,10.05
2017-12-24T02:39:45.535Z,9.98
2017-12-24T02:40:46.256Z,10.02
2017-12-24T02:41:46.978Z,10.01
2017-12-24T02:42:47.701Z,10.01
2017-12-24T02:43:48.410Z,9.98
2017-12-24T02:44:49.174Z,9.99
2017-12-24T02:45:49.832Z,9.97
2017-12-24T02:46:50.545Z,9.98
2017-12-24T02:47:51.245Z,9.99
2017-12-24T02:48:51.968Z,10.01
2017-12-24T02:49:52.676Z,10.04
2017-12-24T02:50:53.385Z,10.02
2017-12-24T02:51:54.093Z,10.04
2017-12-24T02:52:54.800Z,9.94
2017-12-24T02:53:55.510Z,10.02
2017-12-24T02:54:56.233Z,10.01
2017-12-24T02:55:56.941Z,9.99
2017-12-24T02:56:57.650Z,10.04
2017-12-24T02:57:58.360Z,10.01
2017-12-24T02:58:59.068Z,10.01
2017-12-24T02:59:59.788Z,9.98
2017-12-24T03:01:00.498Z,10.01
2017-12-24T03:02:01.206Z,10.01
2017-12-24T03:03:01.915Z,10.07
2017-12-24T03:04:02.624Z,10.02
2017-12-24T03:05:03.334Z,9.99
2017-12-24T03:06:04.045Z,9.97
2017-12-24T03:07:04.753Z,9.99
2017-12-24T03:08:05.462Z,9.98
2017-12-24T03:09:06.172Z,10.05
2017-12-24T03:10:06.894Z,9.99
2017-12-24T03:11:07.600Z,9.97
2017-12-24T03:12:08.308Z,9.98
2017-12-24T03:13:09.016Z,10.02
2017-12-24T03:14:09.724Z,10.02
2017-12-24T03:15:10.448Z,9.98
2017-12-24T03:16:11.155Z,9.97
2017-12-24T03:17:11.864Z,9.98
2017-12-24T03:18:12.571Z,10.01
2017-12-24T03:19:13.281Z,10.01
2017-12-24T03:20:13.989Z,10.04
2017-12-24T03:21:14.696Z,10.01
2017-12-24T03:22:15.407Z,10.01
2017-12-24T03:23:16.128Z,9.99
2017-12-24T03:24:16.836Z,9.99
2017-12-24T03:25:17.544Z,10.15
2017-12-24T03:26:18.254Z,10.04
2017-12-24T03:27:18.965Z,10.01
2017-12-24T03:28:19.674Z,10.07
2017-12-24T03:29:20.384Z,10.01
2017-12-24T03:30:21.092Z,9.95
2017-12-24T03:31:21.800Z,10.01
2017-12-24T03:32:22.507Z,9.99
2017-12-24T03:33:23.215Z,10.07
2017-12-24T03:34:23.937Z,10.01
2017-12-24T03:35:24.660Z,10.04
2017-12-24T03:36:25.369Z,10.04
2017-12-24T03:37:26.093Z,9.98
2017-12-24T03:38:26.800Z,9.99
2017-12-24T03:39:27.508Z,10.01
2017-12-24T03:40:28.231Z,10.07
2017-12-24T03:41:28.942Z,10.10
2017-12-24T03:42:29.664Z,10.02
2017-12-24T03:43:30.387Z,10.12
2017-12-24T03:44:31.112Z,10.02
2017-12-24T03:45:31.820Z,10.09
2017-12-24T03:46:32.530Z,10.05
2017-12-24T03:47:33.237Z,10.07
2017-12-24T03:48:33.947Z,9.99
2017-12-24T03:49:34.662Z,10.12
2017-12-24T03:50:35.363Z,9.99
2017-12-24T03:51:36.086Z,9.99
2017-12-24T03:52:36.795Z,10.02
2017-12-24T03:53:37.515Z,10.01
2017-12-24T03:54:38.228Z,10.01
2017-12-24T03:55:38.936Z,9.95
2017-12-24T03:56:39.644Z,9.99
2017-12-24T03:57:40.353Z,10.04
2017-12-24T03:58:41.069Z,10.05
2017-12-24T03:59:41.770Z,10.04
2017-12-24T04:00:42.481Z,10.02
2017-12-24T04:01:43.204Z,10.01
2017-12-24T04:02:43.912Z,9.98
2017-12-24T04:03:44.632Z,9.99
2017-12-24T04:04:45.341Z,10.01
2017-12-24T04:05:46.051Z,10.02
2017-12-24T04:06:46.760Z,10.01
2017-12-24T04:07:47.471Z,10.02
2017-12-24T04:08:48.191Z,9.99
2017-12-24T04:09:48.900Z,10.01
2017-12-24T04:10:49.606Z,9.99
2017-12-24T04:11:50.314Z,10.07
2017-12-24T04:12:51.036Z,10.05
2017-12-24T04:13:51.746Z,10.05
2017-12-24T04:14:52.452Z,9.99
2017-12-24T04:15:53.178Z,10.01
2017-12-24T04:16:53.894Z,10.02
2017-12-24T04:17:54.596Z,9.99
2017-12-24T04:18:55.303Z,9.99
2017-12-24T04:19:56.010Z,9.99
2017-12-24T04:20:56.732Z,10.02
2017-12-24T04:21:57.441Z,9.97
2017-12-24T04:22:58.151Z,10.02
2017-12-24T04:23:58.860Z,10.13
2017-12-24T04:24:59.569Z,10.04
2017-12-24T04:26:00.292Z,10.04
2017-12-24T04:27:01.000Z,10.05
2017-12-24T04:28:01.709Z,10.12
2017-12-24T04:29:02.423Z,10.10
2017-12-24T04:30:03.127Z,10.16
2017-12-24T04:31:03.848Z,10.12
2017-12-24T04:32:04.572Z,10.19
2017-12-24T04:33:05.288Z,10.13
2017-12-24T04:34:05.990Z,10.07
2017-12-24T04:35:06.699Z,10.04
2017-12-24T04:36:07.411Z,10.04
2017-12-24T04:37:08.130Z,10.01
2017-12-24T04:38:08.837Z,9.97
2017-12-24T04:39:09.545Z,10.01
2017-12-24T04:40:10.267Z,10.01
2017-12-24T04:41:10.977Z,10.04
2017-12-24T04:42:11.684Z,9.98
2017-12-24T04:43:12.392Z,10.09
2017-12-24T04:44:13.100Z,10.07
2017-12-24T04:45:13.819Z,9.99
2017-12-24T04:46:14.528Z,10.12
2017-12-24T04:47:15.251Z,10.04
2017-12-24T04:48:15.960Z,10.09
2017-12-24T04:49:16.671Z,10.15
2017-12-24T04:50:17.379Z,10.04
2017-12-24T04:51:18.088Z,10.13
2017-12-24T04:52:18.796Z,10.07
2017-12-24T04:53:19.504Z,10.09
2017-12-24T04:54:20.226Z,10.09
2017-12-24T04:55:20.935Z,10.13
2017-12-24T04:56:21.643Z,10.15
2017-12-24T04:57:22.353Z,10.05
2017-12-24T04:58:23.075Z,10.09
2017-12-24T04:59:23.796Z,10.15
2017-12-24T05:00:24.506Z,10.15
2017-12-24T05:01:25.214Z,10.16
2017-12-24T05:02:25.937Z,10.10
2017-12-24T05:03:26.646Z,10.07
2017-12-24T05:04:27.358Z,10.13
2017-12-24T05:05:28.062Z,10.15
2017-12-24T05:06:28.769Z,10.13
2017-12-24T05:07:29.478Z,10.10
2017-12-24T05:08:30.187Z,10.04
2017-12-24T05:09:30.896Z,10.12
2017-12-24T05:10:31.618Z,10.12
2017-12-24T05:11:32.328Z,10.15
2017-12-24T05:12:33.036Z,10.12
2017-12-24T05:13:33.747Z,10.01
2017-12-24T05:14:34.469Z,10.07
2017-12-24T05:15:35.178Z,10.05
2017-12-24T05:16:35.887Z,10.17
2017-12-24T05:17:36.598Z,10.10
2017-12-24T05:18:37.307Z,10.10
2017-12-24T05:19:38.017Z,10.05
2017-12-24T05:20:38.729Z,10.04
2017-12-24T05:21:39.437Z,10.02
2017-12-24T05:22:40.146Z,10.10
2017-12-24T05:23:40.858Z,10.05
2017-12-24T05:24:41.625Z,10.13
2017-12-24T05:25:42.278Z,10.09
2017-12-24T05:26:42.985Z,10.12
2017-12-24T05:27:43.692Z,10.12
2017-12-24T05:28:44.400Z,10.07
2017-12-24T05:29:45.122Z,10.07
2017-12-24T05:30:45.830Z,10.07
2017-12-24T05:31:46.541Z,10.10
2017-12-24T05:32:47.249Z,10.10
2017-12-24T05:33:47.973Z,10.07
2017-12-24T05:34:48.681Z,10.05
2017-12-24T05:35:49.391Z,10.04
2017-12-24T05:36:50.099Z,10.05
2017-12-24T05:37:50.810Z,10.07
2017-12-24T05:38:51.523Z,10.04
2017-12-24T05:39:52.227Z,10.16
2017-12-24T05:40:52.937Z,10.09
2017-12-24T05:41:53.646Z,10.12
2017-12-24T05:42:54.357Z,10.12
2017-12-24T05:43:55.064Z,10.05
2017-12-24T05:44:55.775Z,10.13
2017-12-24T05:45:56.486Z,10.13
2017-12-24T05:46:57.197Z,10.10
2017-12-24T05:47:57.919Z,10.12
2017-12-24T05:48:58.632Z,10.09
2017-12-24T05:49:59.338Z,10.16
2017-12-24T05:51:00.068Z,10.13
2017-12-24T05:52:00.772Z,10.13
2017-12-24T05:53:01.494Z,10.15
2017-12-24T05:54:02.216Z,10.12
2017-12-24T05:55:02.925Z,10.12
2017-12-24T05:56:03.636Z,10.10
2017-12-24T05:57:04.346Z,10.15
2017-12-24T05:58:05.067Z,10.13
2017-12-24T05:59:05.775Z,10.16
2017-12-24T06:00:06.484Z,10.13
2017-12-24T06:01:07.208Z,10.16
2017-12-24T06:02:07.920Z,10.17
2017-12-24T06:03:08.629Z,10.13
2017-12-24T06:04:09.337Z,10.12
2017-12-24T06:05:10.046Z,10.17
2017-12-24T06:06:10.756Z,10.23
2017-12-24T06:07:11.478Z,10.09
2017-12-24T06:08:12.184Z,10.12
2017-12-24T06:09:12.892Z,10.12
2017-12-24T06:10:13.600Z,10.16
2017-12-24T06:11:14.307Z,10.20
2017-12-24T06:12:15.032Z,10.13
2017-12-24T06:13:15.742Z,10.19
2017-12-24T06:14:16.450Z,10.17
2017-12-24T06:15:17.159Z,10.15
2017-12-24T06:16:17.870Z,10.16
2017-12-24T06:17:18.591Z,10.16
2017-12-24T06:18:19.314Z,10.16
2017-12-24T06:19:20.024Z,10.15
2017-12-24T06:20:20.738Z,10.09
2017-12-24T06:21:21.441Z,10.15
2017-12-24T06:22:22.149Z,10.12
2017-12-24T06:23:22.857Z,10.15
2017-12-24T06:24:23.567Z,10.07
2017-12-24T06:25:24.275Z,10.15
2017-12-24T06:26:24.984Z,10.05
2017-12-24T06:27:25.694Z,10.04
2017-12-24T06:28:26.418Z,10.10
2017-12-24T06:29:27.128Z,10.09
2017-12-24T06:30:27.839Z,10.09
2017-12-24T06:31:28.547Z,10.10
2017-12-24T06:32:29.268Z,10.05
2017-12-24T06:33:29.977Z,10.13
2017-12-24T06:34:30.685Z,10.05
2017-12-24T06:35:31.394Z,10.12
2017-12-24T06:36:32.117Z,10.04
2017-12-24T06:37:32.825Z,10.10
2017-12-24T06:38:33.547Z,10.04
2017-12-24T06:39:34.257Z,10.15
2017-12-24T06:40:34.965Z,10.09
2017-12-24T06:41:35.675Z,10.10
2017-12-24T06:42:36.397Z,10.10
2017-12-24T06:43:37.108Z,10.10
2017-12-24T06:44:37.820Z,10.04
2017-12-24T06:45:38.525Z,10.05
2017-12-24T06:46:39.233Z,10.09
2017-12-24T06:47:39.954Z,10.13
2017-12-24T06:48:40.663Z,9.98
2017-12-24T06:49:41.370Z,10.07
2017-12-24T06:50:42.093Z,10.01
2017-12-24T06:51:42.803Z,10.10
2017-12-24T06:52:43.512Z,10.09
2017-12-24T06:53:44.220Z,10.10
2017-12-24T06:54:44.941Z,10.09
2017-12-24T06:55:45.652Z,10.05
2017-12-24T06:56:46.361Z,10.05
2017-12-24T06:57:47.070Z,10.05
2017-12-24T06:58:47.778Z,10.10
2017-12-24T06:59:48.487Z,10.04
2017-12-24T07:00:49.194Z,10.09
2017-12-24T07:01:49.907Z,10.04
2017-12-24T07:02:50.627Z,10.04
2017-12-24T07:03:51.338Z,10.10
2017-12-24T07:04:52.053Z,10.02
2017-12-24T07:05:52.758Z,10.02
2017-12-24T07:06:53.465Z,10.05
2017-12-24T07:07:54.188Z,10.01
2017-12-24T07:08:54.910Z,9.99
2017-12-24T07:09:55.631Z,10.12
2017-12-24T07:10:56.339Z,10.13
2017-12-24T07:11:57.046Z,10.07
2017-12-24T07:12:57.756Z,10.09
2017-12-24T07:13:58.467Z,10.15
2017-12-24T07:14:59.178Z,10.01
2017-12-24T07:15:59.887Z,10.07
2017-12-24T07:17:00.596Z,10.05
2017-12-24T07:18:01.306Z,10.09
2017-12-24T07:19:02.028Z,10.16
2017-12-24T07:20:02.736Z,10.02
2017-12-24T07:21:03.445Z,10.10
2017-12-24T07:22:04.170Z,10.02
2017-12-24T07:23:04.893Z,10.13
2017-12-24T07:24:05.604Z,10.15
2017-12-24T07:25:06.317Z,10.10
2017-12-24T07:26:07.024Z,10.09
2017-12-24T07:27:07.749Z,10.13
2017-12-24T07:28:08.457Z,10.05
2017-12-24T07:29:09.182Z,10.09
2017-12-24T07:30:09.889Z,10.13
2017-12-24T07:31:10.597Z,10.17
2017-12-24T07:32:11.309Z,10.16
2017-12-24T07:33:12.032Z,10.20
2017-12-24T07:34:12.741Z,10.15
2017-12-24T07:35:13.450Z,10.10
2017-12-24T07:36:14.159Z,10.17
2017-12-24T07:37:14.870Z,10.13
2017-12-24T07:38:15.581Z,10.10
2017-12-24T07:39:16.290Z,10.16
2017-12-24T07:40:16.999Z,10.17
2017-12-24T07:41:17.709Z,10.20
2017-12-24T07:42:18.421Z,10.12
2017-12-24T07:43:19.133Z,10.09
2017-12-24T07:44:19.855Z,10.12
2017-12-24T07:45:20.565Z,10.12
2017-12-24T07:46:21.276Z,10.05
2017-12-24T07:47:21.984Z,10.04
2017-12-24T07:48:22.695Z,10.09
2017-12-24T07:49:23.408Z,10.05
2017-12-24T07:50:24.120Z,10.15
2017-12-24T07:51:24.841Z,10.02
2017-12-24T07:52:25.552Z,10.05
2017-12-24T07:53:26.282Z,10.09
2017-12-24T07:54:26.999Z,9.97
2017-12-24T07:55:27.711Z,10.02
2017-12-24T07:56:28.422Z,9.98
2017-12-24T07:57:29.146Z,10.02
2017-12-24T07:58:29.859Z,9.99
2017-12-24T07:59:30.575Z,10.02
2017-12-24T08:00:31.279Z,10.13
2017-12-24T08:01:31.990Z,10.07
2017-12-24T08:02:32.714Z,10.05
2017-12-24T08:03:33.425Z,10.12
2017-12-24T08:04:34.137Z,10.07
2017-12-24T08:05:34.849Z,10.09
2017-12-24T08:06:35.574Z,10.05
2017-12-24T08:07:36.285Z,10.05
2017-12-24T08:08:37.246Z,10.04
2017-12-24T08:09:37.957Z,10.16
2017-12-24T08:10:38.669Z,10.09
2017-12-24T08:11:39.382Z,10.01
2017-12-24T08:12:40.095Z,10.09
2017-12-24T08:13:40.806Z,10.13
2017-12-24T08:14:41.530Z,10.10
2017-12-24T08:15:42.258Z,10.02
2017-12-24T08:16:42.979Z,10.02
2017-12-24T08:17:43.692Z,10.02
2017-12-24T08:18:44.401Z,10.12
2017-12-24T08:19:45.111Z,10.16
2017-12-24T08:20:45.822Z,9.97
2017-12-24T08:21:46.548Z,9.98
2017-12-24T08:22:47.261Z,10.01
2017-12-24T08:23:47.988Z,10.07
2017-12-24T08:24:48.707Z,10.04
2017-12-24T08:25:49.415Z,10.09
2017-12-24T08:26:50.126Z,10.13
2017-12-24T08:27:50.838Z,9.98
2017-12-24T08:28:51.551Z,9.99
2017-12-24T08:29:52.262Z,9.98
2017-12-24T08:30:52.987Z,9.98
2017-12-24T08:31:53.713Z,10.07
2017-12-24T08:32:54.427Z,10.02
2017-12-24T08:33:55.152Z,10.04
2017-12-24T08:34:55.865Z,10.02
2017-12-24T08:35:56.576Z,9.98
2017-12-24T08:36:57.288Z,10.02
2017-12-24T08:37:58.013Z,9.98
2017-12-24T08:38:58.725Z,10.09
2017-12-24T08:39:59.436Z,10.05
2017-12-24T08:41:00.161Z,10.05
2017-12-24T08:42:00.874Z,10.09
2017-12-24T08:43:01.586Z,10.12
2017-12-24T08:44:02.299Z,10.10
2017-12-24T08:45:03.008Z,10.15
2017-12-24T08:46:03.720Z,10.07
2017-12-24T08:47:04.433Z,10.02
2017-12-24T08:48:05.145Z,10.10
2017-12-24T08:49:05.856Z,10.05
2017-12-24T08:50:06.570Z,10.01
2017-12-24T08:51:07.284Z,10.02
2017-12-24T08:52:07.996Z,9.98
2017-12-24T08:53:08.708Z,10.07
2017-12-24T08:54:09.421Z,9.99
2017-12-24T08:55:10.135Z,10.01
2017-12-24T08:56:10.847Z,10.04
2017-12-24T08:57:11.571Z,10.07
2017-12-24T08:58:12.352Z,10.02
2017-12-24T08:59:13.006Z,9.99
2017-12-24T09:00:13.715Z,9.95
2017-12-24T09:01:14.429Z,10.01
2017-12-24T09:02:15.156Z,10.04
2017-12-24T09:03:15.870Z,10.02
2017-12-24T09:04:16.598Z,10.02
2017-12-24T09:05:17.323Z,10.12
2017-12-24T09:06:18.037Z,10.12
2017-12-24T09:07:18.745Z,9.98
2017-12-24T09:08:19.464Z,10.02
2017-12-24T09:09:20.174Z,10.09
2017-12-24T09:10:20.887Z,10.16
2017-12-24T09:11:21.598Z,10.01
2017-12-24T09:12:22.312Z,10.02
2017-12-24T09:13:23.025Z,10.01
2017-12-24T09:14:23.737Z,10.02
2017-12-24T09:15:24.452Z,10.02
2017-12-24T09:16:25.177Z,10.10
2017-12-24T09:17:25.890Z,10.07
2017-12-24T09:18:26.602Z,10.05
2017-12-24T09:19:27.315Z,10.05
2017-12-24T09:20:28.040Z,9.99
2017-12-24T09:21:28.754Z,10.10
2017-12-24T09:22:29.468Z,10.19
2017-12-24T09:23:30.190Z,10.12
2017-12-24T09:24:30.902Z,10.13
2017-12-24T09:25:31.628Z,10.13
2017-12-24T09:26:32.391Z,10.15
2017-12-24T09:27:33.069Z,10.16
2017-12-24T09:28:33.793Z,10.16
2017-12-24T09:29:34.509Z,10.16
2017-12-24T09:30:35.225Z,10.20
2017-12-24T09:31:35.948Z,10.22
2017-12-24T09:32:36.662Z,10.19
2017-12-24T09:33:37.374Z,10.13
2017-12-24T09:34:38.086Z,10.16
2017-12-24T09:35:38.802Z,10.17
2017-12-24T09:36:39.517Z,10.17
2017-12-24T09:37:40.234Z,10.22
2017-12-24T09:38:40.957Z,10.17
2017-12-24T09:39:41.672Z,10.19
2017-12-24T09:40:42.386Z,10.17
2017-12-24T09:41:43.099Z,10.17
2017-12-24T09:42:43.813Z,10.15
2017-12-24T09:43:44.525Z,10.19
2017-12-24T09:44:45.240Z,10.20
2017-12-24T09:45:45.955Z,10.17
2017-12-24T09:46:46.669Z,10.23
2017-12-24T09:47:47.382Z,10.19
2017-12-24T09:48:48.098Z,10.20
2017-12-24T09:49:48.825Z,10.20
2017-12-24T09:50:49.538Z,10.15
2017-12-24T09:51:50.250Z,10.22
2017-12-24T09:52:50.965Z,10.17
2017-12-24T09:53:51.677Z,10.17
2017-12-24T09:54:52.391Z,10.19
2017-12-24T09:55:53.106Z,10.15
2017-12-24T09:56:53.832Z,10.20
2017-12-24T09:57:54.560Z,10.10
2017-12-24T09:58:55.275Z,10.12
2017-12-24T09:59:55.987Z,10.19
2017-12-24T10:00:56.701Z,10.13
2017-12-24T10:01:57.415Z,10.20
2017-12-24T10:02:58.130Z,10.12
2017-12-24T10:03:58.846Z,10.10
2017-12-24T10:04:59.568Z,10.13
2017-12-24T10:06:00.295Z,10.19
2017-12-24T10:07:01.010Z,10.13
2017-12-24T10:08:01.725Z,10.17
2017-12-24T10:09:02.437Z,10.16
2017-12-24T10:10:03.151Z,10.13
2017-12-24T10:11:03.864Z,10.20
2017-12-24T10:12:04.580Z,10.04
2017-12-24T10:13:05.307Z,10.01
2017-12-24T10:14:06.017Z,9.98
2017-12-24T10:15:06.731Z,10.13
2017-12-24T10:16:07.453Z,10.10
2017-12-24T10:17:08.169Z,10.02
2017-12-24T10:18:08.894Z,9.99
2017-12-24T10:19:09.623Z,10.13
2017-12-24T10:20:10.335Z,10.12
2017-12-24T10:21:11.048Z,10.22
2017-12-24T10:22:11.774Z,10.35
2017-12-24T10:23:12.488Z,10.46
2017-12-24T10:24:13.202Z,10.34
2017-12-24T10:25:13.919Z,10.48
2017-12-24T10:26:14.643Z,10.42
2017-12-24T10:27:15.355Z,10.44
2017-12-24T10:28:16.069Z,10.40
2017-12-24T10:29:16.783Z,10.26
2017-12-24T10:30:17.495Z,10.13
2017-12-24T10:31:18.207Z,10.10
2017-12-24T10:32:18.920Z,10.04
2017-12-24T10:33:19.632Z,10.01
2017-12-24T10:34:20.342Z,9.95
2017-12-24T10:35:21.055Z,9.97
2017-12-24T10:36:21.781Z,10.17
2017-12-24T10:37:22.501Z,9.99
2017-12-24T10:38:23.213Z,9.97
2017-12-24T10:39:23.930Z,9.97
2017-12-24T10:40:24.636Z,9.89
2017-12-24T10:41:25.347Z,9.86
2017-12-24T10:42:26.058Z,9.79
2017-12-24T10:43:26.783Z,9.97
2017-12-24T10:44:27.494Z,9.83
2017-12-24T10:45:28.206Z,9.74
2017-12-24T10:46:28.918Z,9.73
2017-12-24T10:47:29.629Z,9.82
2017-12-24T10:48:30.339Z,9.72
2017-12-24T10:49:31.047Z,9.68
2017-12-24T10:50:31.759Z,9.68
2017-12-24T10:51:32.471Z,9.73
2017-12-24T10:52:33.195Z,9.76
2017-12-24T10:53:33.907Z,9.65
2017-12-24T10:54:34.631Z,9.72
2017-12-24T10:55:35.343Z,9.72
2017-12-24T10:56:36.055Z,9.65
2017-12-24T10:57:36.767Z,9.68
2017-12-24T10:58:37.492Z,9.69
2017-12-24T10:59:38.215Z,9.65
2017-12-24T11:00:38.926Z,9.66
2017-12-24T11:01:39.637Z,9.64
2017-12-24T11:02:40.349Z,9.65
2017-12-24T11:03:41.070Z,9.68
2017-12-24T11:04:41.782Z,9.61
2017-12-24T11:05:42.507Z,9.54
2017-12-24T11:06:43.219Z,9.50
2017-12-24T11:07:43.931Z,9.62
2017-12-24T11:08:44.639Z,9.51
2017-12-24T11:09:45.350Z,9.55
2017-12-24T11:10:46.064Z,9.55
2017-12-24T11:11:46.776Z,9.56
2017-12-24T11:12:47.481Z,9.47
2017-12-24T11:13:48.191Z,9.51
2017-12-24T11:14:48.904Z,9.56
2017-12-24T11:15:49.616Z,9.51
2017-12-24T11:16:50.325Z,9.56
2017-12-24T11:17:51.048Z,9.41
2017-12-24T11:18:51.758Z,9.58
2017-12-24T11:19:52.471Z,9.55
2017-12-24T11:20:53.181Z,9.39
2017-12-24T11:21:53.906Z,9.44
2017-12-24T11:22:54.631Z,9.58
2017-12-24T11:23:55.355Z,9.59
2017-12-24T11:24:56.065Z,9.56
2017-12-24T11:25:56.773Z,9.54
2017-12-24T11:26:57.484Z,9.55
2017-12-24T11:27:58.206Z,9.51
2017-12-24T11:28:58.920Z,9.55
2017-12-24T11:29:59.631Z,9.59
2017-12-24T11:31:00.341Z,9.62
2017-12-24T11:32:01.052Z,9.51
2017-12-24T11:33:01.763Z,9.54
2017-12-24T11:34:02.473Z,9.51
2017-12-24T11:35:03.199Z,9.58
2017-12-24T11:36:03.907Z,9.58
2017-12-24T11:37:04.617Z,9.47
2017-12-24T11:38:05.326Z,9.48
2017-12-24T11:39:06.037Z,9.79
2017-12-24T11:40:06.746Z,9.89
2017-12-24T11:41:07.456Z,9.89
2017-12-24T11:42:08.167Z,9.82
2017-12-24T11:43:08.875Z,9.77
2017-12-24T11:44:09.598Z,9.69
2017-12-24T11:45:10.307Z,9.65
2017-12-24T11:46:11.018Z,9.62
2017-12-24T11:47:11.725Z,9.61
2017-12-24T11:48:12.435Z,9.50
2017-12-24T11:49:13.142Z,9.46
2017-12-24T11:50:13.851Z,9.56
2017-12-24T11:51:14.562Z,9.51
2017-12-24T11:52:15.272Z,9.55
2017-12-24T11:53:16.011Z,9.54
2017-12-24T11:54:16.722Z,9.48
2017-12-24T11:55:17.432Z,9.54
2017-12-24T11:56:18.142Z,9.51
2017-12-24T11:57:18.853Z,9.50
2017-12-24T11:58:19.562Z,9.59
2017-12-24T11:59:20.279Z,9.54
2017-12-24T12:00:20.985Z,9.54
2017-12-24T12:01:21.696Z,9.56
2017-12-24T12:02:22.406Z,9.51
2017-12-24T12:03:23.116Z,9.44
2017-12-24T12:04:23.827Z,9.47
2017-12-24T12:05:24.537Z,9.40
2017-12-24T12:06:25.247Z,9.44
2017-12-24T12:07:25.955Z,9.58
2017-12-24T12:08:26.665Z,9.32
2017-12-24T12:09:27.379Z,9.43
2017-12-24T12:10:28.090Z,9.44
2017-12-24T12:11:28.799Z,9.40
2017-12-24T12:12:29.521Z,9.40
2017-12-24T12:13:30.248Z,9.41
2017-12-24T12:14:30.969Z,9.43
2017-12-24T12:15:31.697Z,9.43
2017-12-24T12:16:32.409Z,9.43
2017-12-24T12:17:33.119Z,9.44
2017-12-24T12:18:33.829Z,9.43
2017-12-24T12:19:34.539Z,9.50
2017-12-24T12:20:35.249Z,9.47
2017-12-24T12:21:35.960Z,9.40
2017-12-24T12:22:36.674Z,9.43
2017-12-24T12:23:37.383Z,9.43
2017-12-24T12:24:38.093Z,9.44
2017-12-24T12:25:38.806Z,9.46
2017-12-24T12:26:39.518Z,9.37
2017-12-24T12:27:40.228Z,9.40
2017-12-24T12:28:40.938Z,9.40
2017-12-24T12:29:41.648Z,9.41
2017-12-24T12:30:42.356Z,9.44
2017-12-24T12:31:43.065Z,9.43
2017-12-24T12:32:43.775Z,9.40
2017-12-24T12:33:44.502Z,9.40
2017-12-24T12:34:45.211Z,9.44
2017-12-24T12:35:45.921Z,9.44
2017-12-24T12:36:46.683Z,9.43
2017-12-24T12:37:47.407Z,9.41
2017-12-24T12:38:48.121Z,9.41
2017-12-24T12:39:48.829Z,9.40
2017-12-24T12:40:49.615Z,9.41
2017-12-24T12:41:50.339Z,9.40
2017-12-24T12:42:51.048Z,9.40
2017-12-24T12:43:51.758Z,9.40
2017-12-24T12:44:52.486Z,9.51
2017-12-24T12:45:53.194Z,9.56
2017-12-24T12:46:53.918Z,9.55
2017-12-24T12:47:54.629Z,9.48
2017-12-24T12:48:55.339Z,9.58
2017-12-24T12:49:56.064Z,9.41
2017-12-24T12:50:56.774Z,9.44
2017-12-24T12:51:57.486Z,9.40
2017-12-24T12:52:58.197Z,9.43
2017-12-24T12:53:58.911Z,9.50
2017-12-24T12:54:59.622Z,9.54
2017-12-24T12:56:00.379Z,9.44
2017-12-24T12:57:01.040Z,9.47
2017-12-24T12:58:01.764Z,9.41
2017-12-24T12:59:02.473Z,9.44
2017-12-24T13:00:03.184Z,9.47
2017-12-24T13:01:03.894Z,9.41
2017-12-24T13:02:04.607Z,9.44
2017-12-24T13:03:05.318Z,9.54
2017-12-24T13:04:06.030Z,9.55
2017-12-24T13:05:06.738Z,9.55
2017-12-24T13:06:07.447Z,9.50
2017-12-24T13:07:08.172Z,9.48
2017-12-24T13:08:08.886Z,9.56
2017-12-24T13:09:09.596Z,9.61
2017-12-24T13:10:10.307Z,9.51
2017-12-24T13:11:11.019Z,9.50
2017-12-24T13:12:11.727Z,9.54
2017-12-24T13:13:12.439Z,9.61